CheckWX is a tool to help pilots better visualize weather data.  It is not intended as a substitute for an official pre-flight weather briefing.

14:42:57 UTC

24A METAR
Jackson County Airport
Sylva, North Carolina, USA
Current

23 mins ago

K24A 251420Z AUTO 00000KT 10SM OVC110 15/10 A3001 RMK AO2 T01460101
Observed
Apr-25 @ 14:20 UTC
Visibility
10 SM
Flight Rules
VFR
Cloud Levels
  • Overcast at 11,000' AGL
Temperature
15°C / 59°F
Dewpoint
10°C / 50°F
Humidity
72%
Altimeter
30.01" Hg
Pressure
1016.22 hPa
Previous

43 mins ago

K24A 251400Z AUTO 00000KT 10SM OVC110 15/10 A3001 RMK AO2 T01540103
Observed
Apr-25 @ 14:00 UTC
Visibility
10 SM
Flight Rules
VFR
Cloud Levels
  • Overcast at 11,000' AGL
Temperature
15°C / 59°F
Dewpoint
10°C / 50°F
Humidity
72%
Altimeter
30.01" Hg
Pressure
1016.22 hPa
Previous

1 hour ago

K24A 251340Z AUTO 00000KT 10SM OVC110 14/11 A3000 RMK AO2 T01360108
Observed
Apr-25 @ 13:40 UTC
Visibility
10 SM
Flight Rules
VFR
Cloud Levels
  • Overcast at 11,000' AGL
Temperature
14°C / 57°F
Dewpoint
11°C / 52°F
Humidity
82%
Altimeter
30" Hg
Pressure
1015.92 hPa